Portada
METAR-TAF:

METAR-TAF

Aeropuertos :

Trevico, Italia

latitud: 41-03N, longitud: 015-14E, altitud: 1085 m

Observación

El informe se hizo hace 1 hora y 24 minutos, a las 07:55 UTC
Viento 3 kt del este-sureste
Temperatura 1°C
Humedad 93%
Presión 1024 hPa
Visibilidad menor de 50 m

METAR: LIRT 070755Z 11003KT 0000 VV/// 01/M00 Q1024 RMK MON INVIS VAL INVIS VIS MIN 0000

Hora: 10:19 (09:19 UTC)


TAF: falta

Observaciones y pronósticos meteorológicos de más de 4000 aeropuertos (mensajes METAR y TAF).

Los puntos amarillos y rojos representan las estaciones disponibles.

Ponga el ratón en el punto deseado para ver el nombre de la estación.

Haga clic para ver las observaciones y los pronósticos meteorológicos.

Para cambiar el mapa : haga clic en los botones verdes con una cruz de color negro para hacer un zoom, en el botón verde con un guión para alejar o en las flechas verdes para mapas adyacentes.


METAR-TAF: